createdAt,value
2023-04-29T00:00:13.716Z,98.5875
2023-04-29T00:01:14.253Z,98.6128
2023-04-29T00:02:14.831Z,98.6515
2023-04-29T00:03:15.967Z,98.7046
2023-04-29T00:04:17.213Z,98.6786
2023-04-29T00:05:18.507Z,98.6322
2023-04-29T00:06:19.374Z,98.6128
2023-04-29T00:07:19.977Z,98.6118
2023-04-29T00:08:20.602Z,98.6155
2023-04-29T00:09:21.134Z,98.6012
2023-04-29T00:10:21.697Z,98.5989
2023-04-29T00:11:22.184Z,98.6197
2023-04-29T00:12:22.667Z,98.6461
2023-04-29T00:13:23.172Z,98.7038
2023-04-29T00:14:23.693Z,98.7625
2023-04-29T00:15:24.209Z,98.7943
2023-04-29T00:16:24.747Z,98.8572
2023-04-29T00:17:25.450Z,98.8901
2023-04-29T00:18:25.980Z,98.9345
2023-04-29T00:19:26.498Z,98.9982
2023-04-29T00:20:26.992Z,99.0537
2023-04-29T00:21:27.493Z,99.0878
2023-04-29T00:22:27.947Z,99.0981
2023-04-29T00:23:28.414Z,99.1032
2023-04-29T00:24:28.907Z,99.1079
2023-04-29T00:25:29.414Z,99.0596
2023-04-29T00:26:29.906Z,98.9739
2023-04-29T00:27:30.411Z,98.8280
2023-04-29T00:28:30.893Z,98.7453
2023-04-29T00:29:31.361Z,98.6211
2023-04-29T00:30:31.862Z,98.5632
2023-04-29T00:31:32.395Z,98.3149
2023-04-29T00:32:32.894Z,98.1598
2023-04-29T00:33:33.395Z,98.0937
2023-04-29T00:34:33.848Z,98.0090
2023-04-29T00:35:34.449Z,97.9089
2023-04-29T00:36:34.972Z,97.8422
2023-04-29T00:37:35.430Z,97.8339
2023-04-29T00:38:36.043Z,97.7723
2023-04-29T00:39:36.538Z,97.8597
2023-04-29T00:40:37.032Z,97.8648
2023-04-29T00:41:37.502Z,97.8549
2023-04-29T00:42:38.025Z,97.8676
2023-04-29T00:43:38.448Z,97.9061
2023-04-29T00:44:38.927Z,97.9380
2023-04-29T00:45:39.386Z,97.9546
2023-04-29T00:46:40.216Z,97.9000
2023-04-29T00:47:40.852Z,97.8175
2023-04-29T00:48:41.339Z,97.7219
2023-04-29T00:49:41.864Z,97.7456
2023-04-29T00:50:42.371Z,97.6733
2023-04-29T00:51:42.841Z,97.7086
2023-04-29T00:52:43.280Z,97.6335
2023-04-29T00:53:43.751Z,97.6074
2023-04-29T00:54:44.222Z,97.6827
2023-04-29T00:55:44.737Z,97.6664
2023-04-29T00:56:45.222Z,97.5807
2023-04-29T00:57:45.706Z,97.5653
2023-04-29T00:58:46.206Z,97.6711
2023-04-29T00:59:46.698Z,97.6794
2023-04-29T01:00:47.217Z,97.6523
2023-04-29T01:01:47.918Z,97.6368
2023-04-29T01:02:48.692Z,97.6730
2023-04-29T01:03:49.806Z,97.6640
2023-04-29T01:04:50.310Z,97.6850
2023-04-29T01:05:50.780Z,97.7309
2023-04-29T01:06:51.354Z,97.8131
2023-04-29T01:07:51.807Z,97.9374
2023-04-29T01:08:52.535Z,98.0280
2023-04-29T01:09:53.782Z,97.9540
2023-04-29T01:10:54.458Z,97.9329
2023-04-29T01:11:54.951Z,97.9372
2023-04-29T01:12:55.477Z,97.9098
2023-04-29T01:13:55.970Z,97.9463
2023-04-29T01:14:56.438Z,97.9816
2023-04-29T01:15:57.021Z,98.0043
2023-04-29T01:16:57.490Z,98.0033
2023-04-29T01:17:57.995Z,98.0526
2023-04-29T01:18:58.510Z,97.9352
2023-04-29T01:19:58.970Z,97.8255
2023-04-29T01:20:59.462Z,97.8653
2023-04-29T01:21:59.976Z,97.8529
2023-04-29T01:23:00.580Z,97.7390
2023-04-29T01:24:01.072Z,97.6622
2023-04-29T01:25:01.543Z,97.2903
2023-04-29T01:26:02.072Z,96.9393
2023-04-29T01:27:02.551Z,96.8470
2023-04-29T01:28:03.094Z,96.8746
2023-04-29T01:29:03.627Z,96.9717
2023-04-29T01:30:04.162Z,97.1078
2023-04-29T01:31:04.788Z,97.1659
2023-04-29T01:32:05.300Z,97.3096
2023-04-29T01:33:05.779Z,97.4097
2023-04-29T01:34:06.267Z,97.4494
2023-04-29T01:35:06.696Z,96.7491
2023-04-29T01:36:07.184Z,96.2901
2023-04-29T01:37:07.755Z,96.2784
2023-04-29T01:38:08.229Z,96.3209
2023-04-29T01:39:08.718Z,96.3455
2023-04-29T01:40:09.228Z,96.2914
2023-04-29T01:41:09.740Z,96.4314
2023-04-29T01:42:10.223Z,96.3295
2023-04-29T01:43:10.777Z,96.1360
2023-04-29T01:44:11.281Z,95.7782
2023-04-29T01:45:11.797Z,95.6733
2023-04-29T01:46:12.289Z,95.6303
2023-04-29T01:47:12.810Z,95.3426
2023-04-29T01:48:13.344Z,95.3907
2023-04-29T01:49:13.885Z,95.4703
2023-04-29T01:50:14.407Z,95.5044
2023-04-29T01:51:14.904Z,95.4592
2023-04-29T01:52:15.467Z,95.4385
2023-04-29T01:53:16.034Z,95.5334
2023-04-29T01:54:16.493Z,95.6636
2023-04-29T01:55:16.973Z,95.7332
2023-04-29T01:56:17.452Z,95.9032
2023-04-29T01:57:17.942Z,95.9471
2023-04-29T01:58:18.563Z,96.0537
2023-04-29T01:59:19.062Z,96.2680
2023-04-29T02:00:19.578Z,96.4188
2023-04-29T02:01:20.211Z,96.5380
2023-04-29T02:02:20.791Z,96.6189
2023-04-29T02:03:21.390Z,96.8026
2023-04-29T02:04:21.933Z,96.9357
2023-04-29T02:05:22.421Z,96.9896
2023-04-29T02:06:22.958Z,96.9694
2023-04-29T02:07:23.418Z,97.1828
2023-04-29T02:08:23.919Z,97.3840
2023-04-29T02:09:24.398Z,97.4515
2023-04-29T02:10:24.885Z,97.6494
2023-04-29T02:11:26.479Z,97.5558
2023-04-29T02:12:26.923Z,97.5105
2023-04-29T02:13:27.486Z,97.4026
2023-04-29T02:14:28.008Z,97.3845
2023-04-29T02:15:28.489Z,97.4303
2023-04-29T02:16:29.011Z,97.4915
2023-04-29T02:17:29.528Z,97.6159
2023-04-29T02:18:30.029Z,97.7748
2023-04-29T02:19:30.515Z,97.8769
2023-04-29T02:20:31.033Z,98.0182
2023-04-29T02:21:31.581Z,98.0970
2023-04-29T02:22:32.060Z,98.1616
2023-04-29T02:23:32.546Z,98.2061
2023-04-29T02:24:33.048Z,98.2205
2023-04-29T02:25:33.544Z,98.2255
2023-04-29T02:26:34.060Z,98.0662
2023-04-29T02:27:34.531Z,97.8891
2023-04-29T02:28:35.430Z,97.7747
2023-04-29T02:29:35.912Z,97.6219
2023-04-29T02:30:36.453Z,97.6584
2023-04-29T02:31:36.997Z,97.5385
2023-04-29T02:32:37.512Z,97.1062
2023-04-29T02:33:38.032Z,96.8907
2023-04-29T02:34:38.554Z,96.4661
2023-04-29T02:35:39.008Z,96.2719
2023-04-29T02:36:39.531Z,95.8238
2023-04-29T02:37:40.034Z,95.6416
2023-04-29T02:38:40.545Z,95.7395
2023-04-29T02:39:41.033Z,95.9499
2023-04-29T02:40:41.531Z,95.8959
2023-04-29T02:41:42.042Z,95.6619
2023-04-29T02:42:42.545Z,95.6897
2023-04-29T02:43:43.025Z,95.7755
2023-04-29T02:44:43.509Z,96.1207
2023-04-29T02:45:44.034Z,96.3571
2023-04-29T02:46:44.553Z,96.4862
2023-04-29T02:47:45.064Z,96.4347
2023-04-29T02:48:45.571Z,96.3361
2023-04-29T02:49:46.130Z,96.2704
2023-04-29T02:50:46.579Z,96.3071
2023-04-29T02:51:47.132Z,96.5818
2023-04-29T02:52:47.631Z,96.7567
2023-04-29T02:53:48.132Z,96.7782
2023-04-29T02:54:48.614Z,96.9000
2023-04-29T02:55:49.110Z,96.9737
2023-04-29T02:56:49.713Z,97.0104
2023-04-29T02:57:50.256Z,97.1651
2023-04-29T02:58:50.762Z,97.3772
2023-04-29T02:59:52.836Z,97.5473
2023-04-29T03:00:53.693Z,97.6414
2023-04-29T03:01:54.406Z,97.7374
2023-04-29T03:02:55.329Z,97.7768
2023-04-29T03:03:56.259Z,97.7634
2023-04-29T03:04:56.919Z,97.8400
2023-04-29T03:05:57.344Z,97.8750
2023-04-29T03:06:57.889Z,97.9170
2023-04-29T03:07:58.343Z,97.9866
2023-04-29T03:08:58.842Z,98.0655
2023-04-29T03:09:59.335Z,98.1430
2023-04-29T03:10:59.851Z,98.1767
2023-04-29T03:12:00.420Z,98.2561
2023-04-29T03:13:00.970Z,98.2574
2023-04-29T03:14:03.015Z,98.2832
2023-04-29T03:15:03.736Z,98.2845
2023-04-29T03:16:04.233Z,98.3132
2023-04-29T03:17:05.213Z,98.3067
2023-04-29T03:18:05.858Z,98.3179
2023-04-29T03:19:06.323Z,98.3246
2023-04-29T03:20:06.888Z,98.3807
2023-04-29T03:21:07.349Z,98.4201
2023-04-29T03:22:07.894Z,98.4278
2023-04-29T03:23:08.504Z,98.4356
2023-04-29T03:24:09.100Z,98.4974
2023-04-29T03:25:09.580Z,98.5210
2023-04-29T03:26:10.149Z,98.5118
2023-04-29T03:27:10.688Z,98.4898
2023-04-29T03:28:11.191Z,98.4885
2023-04-29T03:29:11.723Z,98.4354
2023-04-29T03:30:12.307Z,98.3738
2023-04-29T03:31:12.867Z,97.9248
2023-04-29T03:32:13.361Z,97.0833
2023-04-29T03:33:13.929Z,96.3374
2023-04-29T03:34:14.454Z,96.0611
2023-04-29T03:35:16.322Z,96.1522
2023-04-29T03:36:16.802Z,96.2222
2023-04-29T03:37:17.297Z,95.9594
2023-04-29T03:38:17.772Z,95.3483
2023-04-29T03:39:18.306Z,95.1992
2023-04-29T03:40:18.795Z,95.0405
2023-04-29T03:41:19.297Z,95.0605
2023-04-29T03:42:19.896Z,94.9948
2023-04-29T03:43:20.446Z,94.8094
2023-04-29T03:44:20.890Z,94.3947
2023-04-29T03:45:21.436Z,94.2009
2023-04-29T03:46:22.154Z,94.2395
2023-04-29T03:47:22.728Z,94.8011
2023-04-29T03:48:23.252Z,95.1768
2023-04-29T03:49:23.721Z,95.4949
2023-04-29T03:50:24.346Z,95.4813
2023-04-29T03:51:24.878Z,95.5271
2023-04-29T03:52:25.395Z,95.6680
2023-04-29T03:53:25.853Z,95.8361
2023-04-29T03:54:26.382Z,95.9552
2023-04-29T03:55:27.024Z,96.1119
2023-04-29T03:56:27.514Z,96.0463
2023-04-29T03:57:28.108Z,96.1251
2023-04-29T03:58:28.572Z,96.1076
2023-04-29T03:59:29.065Z,95.8765
2023-04-29T04:00:29.525Z,95.7478
2023-04-29T04:01:30.055Z,95.8281
2023-04-29T04:02:31.487Z,95.9437
2023-04-29T04:03:32.407Z,95.9270
2023-04-29T04:04:33.698Z,96.1857
2023-04-29T04:05:34.377Z,96.4044
2023-04-29T04:06:34.862Z,96.5531
2023-04-29T04:07:35.407Z,96.8596
2023-04-29T04:08:35.915Z,97.1733
2023-04-29T04:09:36.394Z,97.4449
2023-04-29T04:10:36.856Z,97.5649
2023-04-29T04:11:37.334Z,97.5836
2023-04-29T04:12:37.873Z,97.6928
2023-04-29T04:13:38.435Z,97.8582
2023-04-29T04:14:38.985Z,97.9713
2023-04-29T04:15:39.508Z,98.0115
2023-04-29T04:16:40.147Z,98.0037
2023-04-29T04:17:40.842Z,97.9731
2023-04-29T04:18:41.325Z,97.9718
2023-04-29T04:19:41.931Z,97.8835
2023-04-29T04:20:42.500Z,97.8206
2023-04-29T04:21:43.021Z,97.7900
2023-04-29T04:22:43.562Z,97.7780
2023-04-29T04:23:44.125Z,97.6993
2023-04-29T04:24:44.634Z,97.6285
2023-04-29T04:25:45.145Z,97.5569
2023-04-29T04:26:45.643Z,97.5678
2023-04-29T04:27:46.199Z,97.5300
2023-04-29T04:28:46.698Z,97.4440
2023-04-29T04:29:47.244Z,97.3047
2023-04-29T04:30:47.808Z,97.2282
2023-04-29T04:31:48.372Z,97.2154
2023-04-29T04:32:48.955Z,97.1982
2023-04-29T04:33:49.408Z,97.2700
2023-04-29T04:34:49.861Z,97.3031
2023-04-29T04:35:50.302Z,97.3205
2023-04-29T04:36:50.830Z,97.2587
2023-04-29T04:37:51.390Z,97.2615
2023-04-29T04:38:51.920Z,97.2305
2023-04-29T04:39:53.419Z,97.1372
2023-04-29T04:40:54.354Z,97.0167
2023-04-29T04:41:54.825Z,97.0030
2023-04-29T04:42:55.869Z,97.0640
2023-04-29T04:43:56.461Z,97.0415
2023-04-29T04:44:56.958Z,96.9741
2023-04-29T04:45:57.984Z,96.9623
2023-04-29T04:46:58.513Z,96.8699
2023-04-29T04:47:59.123Z,96.8960
2023-04-29T04:48:59.637Z,96.9329
2023-04-29T04:50:00.210Z,96.8931
2023-04-29T04:51:01.001Z,96.9433
2023-04-29T04:52:01.565Z,97.0329
2023-04-29T04:53:02.093Z,97.1004
2023-04-29T04:54:02.614Z,97.1589
2023-04-29T04:55:03.211Z,97.1149
2023-04-29T04:56:03.727Z,96.9380
2023-04-29T04:57:04.367Z,96.8951
2023-04-29T04:58:05.140Z,96.9244
2023-04-29T04:59:05.722Z,96.8961
2023-04-29T05:00:06.315Z,96.9652
2023-04-29T05:01:07.035Z,97.0616
2023-04-29T05:02:07.579Z,97.0536
2023-04-29T05:03:08.566Z,97.0189
2023-04-29T05:04:09.890Z,97.0253
2023-04-29T05:05:10.524Z,97.0595
2023-04-29T05:06:11.145Z,97.0155
2023-04-29T05:07:11.735Z,96.8804
2023-04-29T05:08:12.263Z,96.9879
2023-04-29T05:09:12.928Z,96.9986
2023-04-29T05:10:13.512Z,97.0023
2023-04-29T05:11:14.090Z,96.9691
2023-04-29T05:12:14.677Z,97.0457
2023-04-29T05:13:15.330Z,97.1087
2023-04-29T05:14:16.023Z,97.2751
2023-04-29T05:15:16.629Z,97.3691
2023-04-29T05:16:17.253Z,97.3899
2023-04-29T05:17:17.885Z,97.3603
2023-04-29T05:18:18.480Z,97.3586
2023-04-29T05:19:19.155Z,97.3258
2023-04-29T05:20:19.645Z,97.3477
2023-04-29T05:21:20.298Z,97.4021
2023-04-29T05:22:20.910Z,97.4874
2023-04-29T05:23:21.532Z,97.4462
2023-04-29T05:24:22.097Z,97.4733
2023-04-29T05:25:22.637Z,97.4174
2023-04-29T05:26:23.297Z,97.3786
2023-04-29T05:27:23.959Z,97.2774
2023-04-29T05:28:27.615Z,97.1909
2023-04-29T05:29:26.388Z,96.8955
2023-04-29T05:30:27.017Z,96.8619
2023-04-29T05:31:27.711Z,96.8105
2023-04-29T05:32:28.289Z,96.6757
2023-04-29T05:33:29.008Z,96.6552
2023-04-29T05:34:29.570Z,96.5960
2023-04-29T05:35:30.150Z,96.6289
2023-04-29T05:36:30.704Z,96.6332
2023-04-29T05:37:31.363Z,96.4904
2023-04-29T05:38:31.954Z,96.3082
2023-04-29T05:39:32.616Z,96.3351
2023-04-29T05:40:33.206Z,96.3671
2023-04-29T05:41:33.798Z,96.3165
2023-04-29T05:42:34.345Z,96.2979
2023-04-29T05:43:40.842Z,96.0007
2023-04-29T05:44:36.302Z,96.0715
2023-04-29T05:45:36.872Z,96.1380
2023-04-29T05:46:37.682Z,95.8731
2023-04-29T05:47:38.334Z,95.7314
2023-04-29T05:48:38.894Z,95.6184
2023-04-29T05:49:39.468Z,95.5020
2023-04-29T05:50:40.101Z,95.4642
2023-04-29T05:51:40.659Z,95.5255
2023-04-29T05:52:41.225Z,95.5273
2023-04-29T05:53:41.808Z,95.5720
2023-04-29T05:54:42.380Z,95.7317
2023-04-29T05:55:42.911Z,95.8602
2023-04-29T05:56:43.457Z,95.8907
2023-04-29T05:57:43.999Z,95.8780
2023-04-29T05:58:44.561Z,95.9160
2023-04-29T05:59:45.170Z,95.7743
2023-04-29T06:00:45.737Z,95.7890
2023-04-29T06:01:46.319Z,95.7401
2023-04-29T06:02:58.709Z,95.7157
2023-04-29T06:03:49.508Z,95.4098
2023-04-29T06:04:51.072Z,95.4028
2023-04-29T06:05:52.525Z,95.3516
2023-04-29T06:06:53.143Z,95.3544
2023-04-29T06:07:53.727Z,95.3851
2023-04-29T06:08:54.362Z,95.4474
2023-04-29T06:09:55.697Z,95.5387
2023-04-29T06:10:56.252Z,95.4542
2023-04-29T06:11:56.765Z,95.2363
2023-04-29T06:12:57.310Z,95.3470
2023-04-29T06:13:57.876Z,95.4466
2023-04-29T06:14:58.431Z,95.5416
2023-04-29T06:15:58.982Z,95.3144
2023-04-29T06:16:59.506Z,95.0325
2023-04-29T06:18:00.508Z,94.8722
2023-04-29T06:19:01.349Z,94.7063
2023-04-29T06:20:01.916Z,94.4585
2023-04-29T06:21:02.429Z,94.2905
2023-04-29T06:22:02.958Z,94.1101
2023-04-29T06:23:03.402Z,94.2834
2023-04-29T06:24:04.126Z,93.5530
2023-04-29T06:25:04.736Z,93.4658
2023-04-29T06:26:05.271Z,93.4177
2023-04-29T06:27:05.778Z,93.3410
2023-04-29T06:28:06.383Z,93.4557
2023-04-29T06:29:06.943Z,93.0960
2023-04-29T06:30:07.489Z,92.7994
2023-04-29T06:31:08.081Z,92.7264
2023-04-29T06:32:08.700Z,92.9511
2023-04-29T06:33:09.500Z,92.8458
2023-04-29T06:34:10.075Z,92.7477
2023-04-29T06:35:11.527Z,92.6897
2023-04-29T06:36:12.022Z,92.7887
2023-04-29T06:37:12.626Z,92.5391
2023-04-29T06:38:13.181Z,92.2769
2023-04-29T06:39:13.761Z,92.4409
2023-04-29T06:40:14.347Z,92.0663
2023-04-29T06:41:14.973Z,92.3016
2023-04-29T06:42:15.481Z,92.2174
2023-04-29T06:43:16.080Z,91.9200
2023-04-29T06:44:16.656Z,92.0871
2023-04-29T06:45:17.124Z,91.7928
2023-04-29T06:46:17.800Z,91.1603
2023-04-29T06:47:18.313Z,90.9321
2023-04-29T06:48:18.823Z,91.1595
2023-04-29T06:49:19.349Z,90.9273
2023-04-29T06:50:19.996Z,90.9444
2023-04-29T06:51:20.532Z,90.7018
2023-04-29T06:52:21.036Z,90.3218
2023-04-29T06:53:21.582Z,90.3252
2023-04-29T06:54:22.222Z,90.4252
2023-04-29T06:55:22.777Z,90.4194
2023-04-29T06:56:23.282Z,90.1395
2023-04-29T06:57:23.804Z,90.3489
2023-04-29T06:58:24.293Z,90.3020
2023-04-29T06:59:24.820Z,90.3864
2023-04-29T07:00:25.306Z,90.5299
2023-04-29T07:01:25.885Z,91.1192
2023-04-29T07:02:26.648Z,90.5038
2023-04-29T07:03:27.495Z,90.6946
2023-04-29T07:04:28.112Z,90.8687
2023-04-29T07:05:28.753Z,90.5803
2023-04-29T07:06:29.401Z,91.1002
2023-04-29T07:07:29.914Z,90.7183
2023-04-29T07:08:30.418Z,90.8311
2023-04-29T07:09:30.965Z,90.9662
2023-04-29T07:10:31.484Z,90.7288
2023-04-29T07:11:32.056Z,90.7822
2023-04-29T07:12:32.532Z,91.1592
2023-04-29T07:13:33.044Z,91.3236
2023-04-29T07:14:33.634Z,90.0715
2023-04-29T07:15:34.111Z,90.1233
2023-04-29T07:16:34.944Z,89.9346
2023-04-29T07:17:35.631Z,89.9470
2023-04-29T07:18:36.202Z,89.6365
2023-04-29T07:19:36.779Z,89.1570
2023-04-29T07:20:37.272Z,89.0710
2023-04-29T07:21:37.774Z,89.0189
2023-04-29T07:22:38.327Z,89.2217
2023-04-29T07:23:38.857Z,88.9849
2023-04-29T07:24:39.384Z,88.2192
2023-04-29T07:25:39.866Z,88.5041
2023-04-29T07:26:40.386Z,88.9149
2023-04-29T07:27:40.906Z,89.1995
2023-04-29T07:28:41.455Z,88.8745
2023-04-29T07:29:42.894Z,89.2957
2023-04-29T07:30:43.438Z,89.3114
2023-04-29T07:31:44.102Z,89.4295
2023-04-29T07:32:44.703Z,89.7396
2023-04-29T07:33:45.218Z,89.5442
2023-04-29T07:34:45.755Z,89.6362
2023-04-29T07:35:46.293Z,89.8234
2023-04-29T07:36:46.847Z,89.8951
2023-04-29T07:37:47.352Z,89.4642
2023-04-29T07:38:47.873Z,89.4386
2023-04-29T07:39:48.401Z,88.6503
2023-04-29T07:40:48.928Z,88.8758
2023-04-29T07:41:49.422Z,88.8269
2023-04-29T07:42:49.971Z,88.4421
2023-04-29T07:43:50.442Z,87.7355
2023-04-29T07:44:51.665Z,87.4928
2023-04-29T07:45:52.617Z,87.2947
2023-04-29T07:46:53.215Z,86.9513
2023-04-29T07:47:53.853Z,86.8366
2023-04-29T07:48:54.338Z,87.0091
2023-04-29T07:49:54.965Z,87.2450
2023-04-29T07:50:55.480Z,86.8388
2023-04-29T07:51:56.012Z,86.8372
2023-04-29T07:52:56.528Z,86.1424
2023-04-29T07:53:57.011Z,86.2750
2023-04-29T07:54:57.587Z,86.2688
2023-04-29T07:55:58.051Z,86.1411
2023-04-29T07:56:58.538Z,86.4804
2023-04-29T07:58:00.826Z,86.6908
2023-04-29T07:59:01.430Z,86.8336
2023-04-29T08:00:01.951Z,86.9089
2023-04-29T08:01:02.454Z,86.7692
2023-04-29T08:02:03.014Z,86.4400
2023-04-29T08:03:03.951Z,86.9876
2023-04-29T08:04:05.237Z,86.4760
2023-04-29T08:05:06.831Z,85.8799
2023-04-29T08:06:08.090Z,84.7515
2023-04-29T08:07:08.771Z,83.9985
2023-04-29T08:08:09.256Z,84.0491
2023-04-29T08:09:09.853Z,84.2246
2023-04-29T08:10:10.297Z,84.1982
2023-04-29T08:11:10.829Z,83.4496
2023-04-29T08:12:11.301Z,83.2922
2023-04-29T08:13:11.838Z,83.2504
2023-04-29T08:14:12.413Z,82.8390
2023-04-29T08:15:12.972Z,83.1501
2023-04-29T08:16:13.572Z,81.9611
2023-04-29T08:17:14.147Z,81.7414
2023-04-29T08:18:14.648Z,82.5886
2023-04-29T08:19:15.163Z,82.3561
2023-04-29T08:20:15.805Z,82.6788
2023-04-29T08:21:16.278Z,83.7161
2023-04-29T08:22:16.769Z,84.3006
2023-04-29T08:23:17.257Z,84.2251
2023-04-29T08:24:18.767Z,83.8952
2023-04-29T08:25:19.302Z,84.0505
2023-04-29T08:26:20.561Z,83.0379
2023-04-29T08:27:21.094Z,81.5230
2023-04-29T08:28:21.726Z,82.1674
2023-04-29T08:29:22.404Z,81.9315
2023-04-29T08:30:22.971Z,82.3130
2023-04-29T08:31:23.540Z,82.4354
2023-04-29T08:32:24.049Z,84.1070
2023-04-29T08:33:24.551Z,83.3313
2023-04-29T08:34:25.068Z,83.3559
2023-04-29T08:35:25.647Z,83.7069
2023-04-29T08:36:26.123Z,83.2847
2023-04-29T08:37:26.743Z,83.3568
2023-04-29T08:38:27.203Z,83.6996
2023-04-29T08:39:27.759Z,82.4153
2023-04-29T08:40:28.350Z,81.5544
2023-04-29T08:41:28.977Z,80.9590
2023-04-29T08:42:29.781Z,80.5224
2023-04-29T08:43:30.526Z,79.8444
2023-04-29T08:44:31.288Z,79.2871
2023-04-29T08:45:32.148Z,79.5610
2023-04-29T08:46:32.841Z,79.7036
2023-04-29T08:47:33.925Z,80.3113
2023-04-29T08:48:34.797Z,80.9681
2023-04-29T08:49:35.388Z,80.5396
2023-04-29T08:50:35.925Z,80.8744
2023-04-29T08:51:36.529Z,80.3206
2023-04-29T08:52:37.319Z,80.1005
2023-04-29T08:53:38.140Z,79.9193
2023-04-29T08:54:38.920Z,79.8280
2023-04-29T08:55:39.581Z,80.3937
2023-04-29T08:56:40.400Z,80.1734
2023-04-29T08:57:40.949Z,79.9964
2023-04-29T08:58:41.675Z,79.1047
2023-04-29T08:59:42.348Z,78.2856
2023-04-29T09:00:43.267Z,78.5569
2023-04-29T09:01:44.566Z,77.2820
2023-04-29T09:02:45.297Z,77.8882
2023-04-29T09:03:46.651Z,78.0606
2023-04-29T09:04:47.498Z,78.4064
2023-04-29T09:05:48.079Z,78.1860
2023-04-29T09:06:48.585Z,77.4797
2023-04-29T09:07:49.107Z,77.1350
2023-04-29T09:08:49.593Z,77.1073
2023-04-29T09:09:50.099Z,77.2501
2023-04-29T09:10:50.634Z,77.8242
2023-04-29T09:11:51.159Z,77.4638
2023-04-29T09:12:51.680Z,77.0870
2023-04-29T09:13:52.238Z,76.8846
2023-04-29T09:14:53.282Z,77.6481
2023-04-29T09:15:53.880Z,77.0388
2023-04-29T09:16:54.630Z,76.9906
2023-04-29T09:17:55.406Z,76.5471
2023-04-29T09:18:55.939Z,76.8027
2023-04-29T09:19:56.407Z,76.9871
2023-04-29T09:20:56.912Z,77.1687
2023-04-29T09:21:57.361Z,76.5011
2023-04-29T09:22:57.846Z,75.8075
2023-04-29T09:23:58.395Z,75.5933
2023-04-29T09:24:59.297Z,75.0065
2023-04-29T09:25:59.838Z,75.4542
2023-04-29T09:27:00.286Z,75.2625
2023-04-29T09:28:00.761Z,75.9398
2023-04-29T09:29:01.226Z,75.5296
2023-04-29T09:30:01.809Z,75.1326
2023-04-29T09:31:02.406Z,74.8722
2023-04-29T09:32:02.931Z,75.6360
2023-04-29T09:33:03.549Z,75.3597
2023-04-29T09:34:03.992Z,75.7346
2023-04-29T09:35:04.700Z,75.7288
2023-04-29T09:36:05.337Z,75.3589
2023-04-29T09:37:05.862Z,74.8718
2023-04-29T09:38:06.406Z,75.5164
2023-04-29T09:39:07.154Z,75.2170
2023-04-29T09:40:07.753Z,74.0755
2023-04-29T09:41:08.361Z,74.5639
2023-04-29T09:42:08.845Z,74.9026
2023-04-29T09:43:09.360Z,74.8237
2023-04-29T09:44:09.932Z,74.0307
2023-04-29T09:45:10.472Z,73.7981
2023-04-29T09:46:11.188Z,73.9231
2023-04-29T09:47:11.826Z,73.6558
2023-04-29T09:48:12.337Z,71.6953
2023-04-29T09:49:12.865Z,71.5028
2023-04-29T09:50:13.396Z,72.3620
2023-04-29T09:51:16.418Z,72.9095
2023-04-29T09:52:14.350Z,71.9761
2023-04-29T09:53:14.923Z,71.6460
2023-04-29T09:54:15.451Z,71.7849
2023-04-29T09:55:16.177Z,72.3918
2023-04-29T09:56:16.784Z,72.1447
2023-04-29T09:57:17.406Z,72.9919
2023-04-29T09:58:17.868Z,72.2651
2023-04-29T09:59:18.487Z,72.2286
2023-04-29T10:00:18.937Z,73.0745
2023-04-29T10:01:19.591Z,70.8612
2023-04-29T10:02:20.267Z,69.3158
2023-04-29T10:03:20.974Z,69.2657
2023-04-29T10:04:22.054Z,69.3290
2023-04-29T10:05:22.553Z,68.6375
2023-04-29T10:06:23.087Z,69.9169
2023-04-29T10:07:23.561Z,69.6221
2023-04-29T10:08:24.043Z,68.2795
2023-04-29T10:09:24.536Z,68.5859
2023-04-29T10:10:25.036Z,68.5506
2023-04-29T10:11:25.587Z,68.3358
2023-04-29T10:12:26.117Z,67.8903
2023-04-29T10:13:26.589Z,68.1243
2023-04-29T10:14:27.049Z,68.3132
2023-04-29T10:15:27.528Z,67.8025
2023-04-29T10:16:28.091Z,67.4089
2023-04-29T10:17:28.615Z,67.1888
2023-04-29T10:18:29.176Z,67.5131
2023-04-29T10:19:29.750Z,68.2086
2023-04-29T10:20:30.288Z,68.9038
2023-04-29T10:21:30.789Z,69.0206
2023-04-29T10:22:31.291Z,68.8278
2023-04-29T10:23:31.775Z,68.1843
2023-04-29T10:24:32.331Z,68.8247
2023-04-29T10:25:32.806Z,68.4195
2023-04-29T10:26:33.343Z,67.7183
2023-04-29T10:27:33.973Z,66.9296
2023-04-29T10:28:34.500Z,67.6629
2023-04-29T10:29:34.998Z,68.1145
2023-04-29T10:30:35.525Z,67.8155
2023-04-29T10:31:36.145Z,66.4134
2023-04-29T10:32:50.576Z,65.5344
2023-04-29T10:33:38.689Z,66.3029
2023-04-29T10:34:39.134Z,65.9614
2023-04-29T10:35:39.604Z,65.9781
2023-04-29T10:36:40.124Z,65.0412
2023-04-29T10:37:40.607Z,64.9550
2023-04-29T10:38:41.121Z,65.8259
2023-04-29T10:39:41.583Z,65.0757
2023-04-29T10:40:42.145Z,63.7052
2023-04-29T10:41:42.636Z,63.0275
2023-04-29T10:42:43.186Z,63.4393
2023-04-29T10:43:43.641Z,63.0920
2023-04-29T10:44:44.223Z,62.7704
2023-04-29T10:45:44.789Z,62.2065
2023-04-29T10:46:45.544Z,62.6444
2023-04-29T10:47:46.149Z,62.2776
2023-04-29T10:48:46.618Z,62.0683
2023-04-29T10:49:47.139Z,61.4127
2023-04-29T10:50:47.586Z,61.8994
2023-04-29T10:51:48.061Z,63.2812
2023-04-29T10:52:48.628Z,63.4294
2023-04-29T10:53:49.180Z,63.6141
2023-04-29T10:54:49.822Z,65.0339
2023-04-29T10:55:50.396Z,64.9632
2023-04-29T10:56:50.924Z,64.4010
2023-04-29T10:57:51.515Z,65.5764
2023-04-29T10:58:52.026Z,64.0461
2023-04-29T10:59:52.553Z,66.0353
2023-04-29T11:00:53.041Z,66.6229
2023-04-29T11:01:53.517Z,67.5356
2023-04-29T11:02:54.094Z,69.4583
2023-04-29T11:03:55.248Z,69.4000
2023-04-29T11:04:56.984Z,69.4700
2023-04-29T11:05:57.785Z,69.5955
2023-04-29T11:06:58.317Z,70.5950
2023-04-29T11:07:58.864Z,71.1223
2023-04-29T11:08:59.493Z,73.0493
2023-04-29T11:10:00.062Z,73.8217
2023-04-29T11:11:00.546Z,75.0110
2023-04-29T11:12:01.087Z,75.4411
2023-04-29T11:13:01.685Z,76.4045
2023-04-29T11:14:02.208Z,77.3931
2023-04-29T11:15:02.743Z,77.7709
2023-04-29T11:16:03.395Z,77.9018
2023-04-29T11:17:03.887Z,78.3719
2023-04-29T11:18:04.506Z,78.4932
2023-04-29T11:19:04.987Z,77.7903
2023-04-29T11:20:05.497Z,77.2710
2023-04-29T11:21:05.954Z,74.7167
2023-04-29T11:22:06.523Z,72.5592
2023-04-29T11:23:07.089Z,71.3521
2023-04-29T11:24:07.606Z,71.6026
2023-04-29T11:25:08.119Z,71.4638
2023-04-29T11:26:08.684Z,72.2171
2023-04-29T11:27:09.223Z,71.6175
2023-04-29T11:28:09.704Z,69.4387
2023-04-29T11:29:10.365Z,67.1234
2023-04-29T11:30:10.788Z,67.5494
2023-04-29T11:31:11.534Z,65.9422
2023-04-29T11:32:12.487Z,64.7373
2023-04-29T11:33:13.118Z,64.0860
2023-04-29T11:34:13.535Z,63.8339
2023-04-29T11:35:13.988Z,61.4085
2023-04-29T11:36:14.545Z,60.3199
2023-04-29T11:37:14.906Z,62.1003
2023-04-29T11:38:15.290Z,61.5212
2023-04-29T11:39:15.705Z,61.1825
2023-04-29T11:40:16.106Z,59.8978
2023-04-29T11:41:16.449Z,59.1625
2023-04-29T11:42:16.878Z,57.5759
2023-04-29T11:43:17.209Z,57.2433
2023-04-29T11:44:17.582Z,57.2884
2023-04-29T11:45:18.011Z,56.7485
2023-04-29T11:46:18.472Z,56.8703
2023-04-29T11:47:18.984Z,55.3015
2023-04-29T11:48:19.371Z,54.5809
2023-04-29T11:49:19.805Z,55.1153
2023-04-29T11:50:21.129Z,54.1809
2023-04-29T11:51:21.446Z,52.5063
2023-04-29T11:52:22.768Z,52.0786
2023-04-29T11:53:23.081Z,53.7041
2023-04-29T11:54:23.471Z,53.7931
2023-04-29T11:55:23.847Z,54.0582
2023-04-29T11:56:24.188Z,53.9901
2023-04-29T11:57:24.492Z,53.0910
2023-04-29T11:58:24.797Z,53.1490
2023-04-29T11:59:25.055Z,54.0969
2023-04-29T12:00:25.417Z,55.5515
2023-04-29T12:01:25.722Z,54.4107
2023-04-29T12:02:26.194Z,53.2125
2023-04-29T12:03:26.942Z,54.9450
2023-04-29T12:04:28.253Z,54.0417
2023-04-29T12:05:28.805Z,52.6515
2023-04-29T12:06:29.086Z,50.7032
2023-04-29T12:07:29.401Z,51.3345
2023-04-29T12:08:29.685Z,50.1896
2023-04-29T12:09:29.979Z,50.1109
2023-04-29T12:10:30.189Z,51.3244
2023-04-29T12:11:30.333Z,49.6927
2023-04-29T12:12:30.498Z,48.7971